Shoei Maru No.55 — JL6485 — position and weather

sailwx.info

Track history (hours):
 
Tides and Currents Weather Stations Pressure Air Temp Water Temp Dewpoint Dewpoint Depression Visibility Wind Speed Wind Dir Waves Ship Positions

Shoei Maru No.55

Last reported at 2018-Jun-18 13:26 UTC. Time now 2018-Jun-18 22:31 UTC.
Position N 33°50' E 134°45'.

Length 72 m; draft 4.5 m.

Type: Cargo ship. MMSI: 431500583.

Date/timePositionNaut miles runAvg speedWind from/ knotsBaromVisibWave heightAir tempDewpointWater temp
2018-Jun-18 13:26N 33°50' E 134°45'4 5.9
2018-Jun-18 12:41N 33°54' E 134°43'0 0.0
2018-Jun-18 12:26N 33°54' E 134°43'0 0.0
2018-Jun-18 11:59N 33°54' E 134°43'0 0.0
2018-Jun-18 05:38N 33°54' E 134°43'2 7.4
2018-Jun-18 05:18N 33°55' E 134°45'412.4
2018-Jun-18 05:01N 33°58' E 134°48'712.7
2018-Jun-18 04:29N 34°04' E 134°52'612.6
2018-Jun-18 04:01N 34°09' E 134°56'612.4
2018-Jun-18 03:30N 34°14' E 135°01'612.0
2018-Jun-18 03:01N 34°19' E 135°04'612.5
2018-Jun-18 02:31N 34°24' E 135°09'612.2
2018-Jun-18 02:00N 34°28' E 135°14'510.8
2018-Jun-18 01:30N 34°28' E 135°21'1 0.8
2018-Jun-18 00:44N 34°28' E 135°21'0 0.0
2018-Jun-17 23:32N 34°28' E 135°21'0 0.0
2018-Jun-17 23:26N 34°28' E 135°21'0 0.0
2018-Jun-17 22:50N 34°28' E 135°21'0 0.0
2018-Jun-17 22:20N 34°28' E 135°21'0 0.0
2018-Jun-17 21:44N 34°28' E 135°21'0 0.0
2018-Jun-17 21:26N 34°28' E 135°21'2 3.2
2018-Jun-17 20:57N 34°29' E 135°20'0 0.0
2018-Jun-17 20:27N 34°29' E 135°20'0 0.0
2018-Jun-17 20:00N 34°29' E 135°20'0 0.0
2018-Jun-17 19:30N 34°29' E 135°20'0 0.0
2018-Jun-17 18:57N 34°29' E 135°20'0 0.0
2018-Jun-17 18:30N 34°29' E 135°20'0 0.0
2018-Jun-17 17:57N 34°29' E 135°20'0 0.0
2018-Jun-17 17:30N 34°29' E 135°20'0 0.0
2018-Jun-17 17:00N 34°29' E 135°20'0 0.0
2018-Jun-17 16:30N 34°29' E 135°20'0 0.0
2018-Jun-17 16:00N 34°29' E 135°20'0 0.0
2018-Jun-17 15:30N 34°29' E 135°20'0 0.1
2018-Jun-17 14:58N 34°29' E 135°20'5 9.9
2018-Jun-17 14:30N 34°28' E 135°14'611.5
2018-Jun-17 14:00N 34°24' E 135°10'612.2
2018-Jun-17 13:30N 34°20' E 135°05'612.1
2018-Jun-17 13:00N 34°14' E 135°03'612.0
2018-Jun-17 12:29N 34°08' E 135°03'612.1
2018-Jun-17 11:59N 34°02' E 135°02'612.2
2018-Jun-17 11:29N 33°55' E 135°02'242 9.6
2018-Jun-16 10:23N 35°07' E 139°43'511.6
2018-Jun-16 10:00N 35°11' E 139°45'510.1
2018-Jun-16 09:30N 35°16' E 139°45'510.4
2018-Jun-16 09:01N 35°21' E 139°42'510.5
2018-Jun-16 08:31N 35°26' E 139°43'4 6.7
2018-Jun-16 07:58N 35°30' E 139°43'0 0.0
2018-Jun-16 07:28N 35°30' E 139°43'0 0.0
2018-Jun-16 06:58N 35°30' E 139°43'0 0.0
2018-Jun-16 06:28N 35°30' E 139°43'0 0.0
2018-Jun-16 05:58N 35°30' E 139°43'0 0.0
2018-Jun-16 05:28N 35°30' E 139°43'0 0.0
2018-Jun-16 04:58N 35°30' E 139°43'0 0.0
2018-Jun-16 04:28N 35°30' E 139°43'0 0.0
2018-Jun-16 04:00N 35°30' E 139°43'4 8.3
2018-Jun-16 03:30N 35°30' E 139°48'2 3.1
2018-Jun-16 02:55N 35°31' E 139°50'0 0.0
2018-Jun-16 02:19N 35°31' E 139°50'0 0.0
2018-Jun-16 01:58N 35°31' E 139°50'4 8.9
2018-Jun-16 01:30N 35°34' E 139°48'1 0.2
2018-Jun-15 20:43N 35°35' E 139°46'0 1.7
2018-Jun-15 20:30N 35°35' E 139°47'5 8.4
2018-Jun-15 19:55N 35°31' E 139°50'0 0.1
2018-Jun-15 19:26N 35°31' E 139°50'0 0.0
2018-Jun-15 18:59N 35°31' E 139°50'0 0.1
2018-Jun-15 18:29N 35°31' E 139°50'0 0.0
2018-Jun-15 17:59N 35°31' E 139°50'0 0.0
2018-Jun-15 17:26N 35°31' E 139°50'0 0.1
2018-Jun-15 16:59N 35°31' E 139°50'0 0.0
2018-Jun-15 16:29N 35°31' E 139°50'0 0.0
2018-Jun-15 15:59N 35°31' E 139°50'0 0.0
2018-Jun-15 15:23N 35°31' E 139°50'0 0.1
2018-Jun-15 14:59N 35°31' E 139°50'0 0.1
2018-Jun-15 14:20N 35°31' E 139°50'0 0.0
2018-Jun-15 13:59N 35°31' E 139°50'0 0.0
2018-Jun-15 13:26N 35°31' E 139°50'0 0.0
2018-Jun-15 12:59N 35°31' E 139°50'0 0.0
2018-Jun-15 12:29N 35°31' E 139°50'0 0.0
2018-Jun-15 11:59N 35°31' E 139°50'0 0.1
2018-Jun-15 11:05N 35°31' E 139°50'0 0.3
2018-Jun-15 10:56N 35°31' E 139°50'0 0.1
2018-Jun-15 10:26N 35°31' E 139°50'0 0.0
2018-Jun-15 09:56N 35°31' E 139°50'0 0.0
2018-Jun-15 09:29N 35°31' E 139°50'0 0.0
2018-Jun-15 08:59N 35°31' E 139°50'0 0.0
2018-Jun-15 08:14N 35°31' E 139°50'0 0.0
2018-Jun-15 07:50N 35°31' E 139°50'0 0.0
2018-Jun-15 07:29N 35°31' E 139°50'0 0.0
2018-Jun-15 06:59N 35°31' E 139°50'0 0.0
2018-Jun-15 06:23N 35°31' E 139°50'0 0.0
2018-Jun-15 05:50N 35°31' E 139°50'0 0.1
2018-Jun-15 05:14N 35°31' E 139°50'0 0.2
2018-Jun-15 04:56N 35°31' E 139°50'0 0.1
2018-Jun-15 04:26N 35°31' E 139°50'0 0.0
2018-Jun-15 03:59N 35°31' E 139°50'0 0.0
2018-Jun-15 03:29N 35°31' E 139°50'2 5.0
2018-Jun-15 03:00N 35°29' E 139°49'5 9.9
2018-Jun-15 02:30N 35°24' E 139°46'5 9.7
2018-Jun-15 02:00N 35°20' E 139°44'5 9.4
2018-Jun-15 01:28N 35°15' E 139°47'4 9.0
2018-Jun-15 01:00N 35°11' E 139°46'610.0
2018-Jun-15 00:25N 35°06' E 139°43'257 5.7
2018-Jun-13 02:59N 33°50' E 134°45'912.8
2018-Jun-13 02:16N 33°58' E 134°51'313.2
2018-Jun-13 02:00N 34°01' E 134°53'713.1
2018-Jun-13 01:30N 34°06' E 134°56'612.8
2018-Jun-13 01:00N 34°12' E 135°00'713.1
2018-Jun-13 00:30N 34°18' E 135°04'612.2
2018-Jun-13 00:00N 34°23' E 135°08'612.6
2018-Jun-12 23:30N 34°28' E 135°13'611.5
2018-Jun-12 23:00N 34°29' E 135°20'1 2.2
2018-Jun-12 22:25N 34°28' E 135°21'0 0.0
2018-Jun-12 21:55N 34°28' E 135°21'0 0.0
2018-Jun-12 21:25N 34°28' E 135°21'0 0.0
2018-Jun-12 20:49N 34°28' E 135°21'0 0.0
2018-Jun-12 20:25N 34°28' E 135°21'0 0.0
2018-Jun-12 19:55N 34°28' E 135°21'0 0.0
2018-Jun-12 19:25N 34°28' E 135°21'0 0.0
2018-Jun-12 18:49N 34°28' E 135°21'0 0.0
2018-Jun-12 18:25N 34°28' E 135°21'0 0.0
2018-Jun-12 17:01N 34°28' E 135°21'0 0.0
2018-Jun-12 16:49N 34°28' E 135°21'1 2.4
2018-Jun-12 16:31N 34°28' E 135°21'5 9.9
2018-Jun-12 15:58N 34°28' E 135°14'510.4
2018-Jun-12 15:30N 34°25' E 135°10'510.0
2018-Jun-12 15:00N 34°21' E 135°06'5 9.1
2018-Jun-12 14:30N 34°17' E 135°04'5 9.3
2018-Jun-12 14:01N 34°13' E 135°03'710.6
2018-Jun-12 13:23N 34°06' E 135°03'410.8
2018-Jun-12 12:58N 34°02' E 135°03'510.9
2018-Jun-12 12:30N 33°56' E 135°03'5 9.7
2018-Jun-12 12:00N 33°52' E 135°04'240 9.1
2018-Jun-11 09:42N 35°06' E 139°41'211.8
2018-Jun-11 09:29N 35°08' E 139°43'612.3
2018-Jun-11 09:00N 35°13' E 139°46'612.2
2018-Jun-11 08:31N 35°19' E 139°43'611.3
2018-Jun-11 08:00N 35°24' E 139°42'5 9.9
2018-Jun-11 07:30N 35°29' E 139°43'1 1.0
2018-Jun-11 06:59N 35°30' E 139°43'0 0.0
2018-Jun-11 06:29N 35°30' E 139°43'0 0.0
2018-Jun-11 05:59N 35°30' E 139°43'0 0.0
2018-Jun-11 05:29N 35°30' E 139°43'0 0.0
2018-Jun-11 04:59N 35°30' E 139°43'0 0.0
2018-Jun-11 04:29N 35°30' E 139°43'0 0.0
2018-Jun-11 03:59N 35°30' E 139°43'0 0.0
2018-Jun-11 03:29N 35°30' E 139°43'0 0.0
2018-Jun-11 02:59N 35°30' E 139°43'0 0.0
2018-Jun-11 02:30N 35°30' E 139°43'4 7.5
2018-Jun-11 02:00N 35°30' E 139°48'4 8.5
2018-Jun-11 01:30N 35°34' E 139°47'1 0.0
2018-Jun-10 01:28N 35°35' E 139°47'4 7.8
2018-Jun-10 01:00N 35°32' E 139°50'5 9.7
2018-Jun-10 00:30N 35°28' E 139°48'510.0
2018-Jun-10 00:01N 35°23' E 139°46'5 9.8
2018-Jun-09 23:30N 35°18' E 139°44'510.0
2018-Jun-09 23:00N 35°14' E 139°47'  
Track history (hours):
 
Tides and Currents Weather Stations Pressure Air Temp Water Temp Dewpoint Dewpoint Depression Visibility Wind Speed Wind Dir Waves Ship Positions

Shoei Maru No.55

Last reported at 2018-Jun-18 13:26 UTC. Time now 2018-Jun-18 22:31 UTC.
Position N 33°50' E 134°45'.

Length 72 m; draft 4.5 m.

Type: Cargo ship. MMSI: 431500583.

Date/timePositionNaut miles runAvg speedWind from/ knotsBaromVisibWave heightAir tempDewpointWater temp
2018-Jun-18 13:26N 33°50' E 134°45'4 5.9
2018-Jun-18 12:41N 33°54' E 134°43'0 0.0
2018-Jun-18 12:26N 33°54' E 134°43'0 0.0
2018-Jun-18 11:59N 33°54' E 134°43'0 0.0
2018-Jun-18 05:38N 33°54' E 134°43'2 7.4
2018-Jun-18 05:18N 33°55' E 134°45'412.4
2018-Jun-18 05:01N 33°58' E 134°48'712.7
2018-Jun-18 04:29N 34°04' E 134°52'612.6
2018-Jun-18 04:01N 34°09' E 134°56'612.4
2018-Jun-18 03:30N 34°14' E 135°01'612.0
2018-Jun-18 03:01N 34°19' E 135°04'612.5
2018-Jun-18 02:31N 34°24' E 135°09'612.2
2018-Jun-18 02:00N 34°28' E 135°14'510.8
2018-Jun-18 01:30N 34°28' E 135°21'1 0.8
2018-Jun-18 00:44N 34°28' E 135°21'0 0.0
2018-Jun-17 23:32N 34°28' E 135°21'0 0.0
2018-Jun-17 23:26N 34°28' E 135°21'0 0.0
2018-Jun-17 22:50N 34°28' E 135°21'0 0.0
2018-Jun-17 22:20N 34°28' E 135°21'0 0.0
2018-Jun-17 21:44N 34°28' E 135°21'0 0.0
2018-Jun-17 21:26N 34°28' E 135°21'2 3.2
2018-Jun-17 20:57N 34°29' E 135°20'0 0.0
2018-Jun-17 20:27N 34°29' E 135°20'0 0.0
2018-Jun-17 20:00N 34°29' E 135°20'0 0.0
2018-Jun-17 19:30N 34°29' E 135°20'0 0.0
2018-Jun-17 18:57N 34°29' E 135°20'0 0.0
2018-Jun-17 18:30N 34°29' E 135°20'0 0.0
2018-Jun-17 17:57N 34°29' E 135°20'0 0.0
2018-Jun-17 17:30N 34°29' E 135°20'0 0.0
2018-Jun-17 17:00N 34°29' E 135°20'0 0.0
2018-Jun-17 16:30N 34°29' E 135°20'0 0.0
2018-Jun-17 16:00N 34°29' E 135°20'0 0.0
2018-Jun-17 15:30N 34°29' E 135°20'0 0.1
2018-Jun-17 14:58N 34°29' E 135°20'5 9.9
2018-Jun-17 14:30N 34°28' E 135°14'611.5
2018-Jun-17 14:00N 34°24' E 135°10'612.2
2018-Jun-17 13:30N 34°20' E 135°05'612.1
2018-Jun-17 13:00N 34°14' E 135°03'612.0
2018-Jun-17 12:29N 34°08' E 135°03'612.1
2018-Jun-17 11:59N 34°02' E 135°02'612.2
2018-Jun-17 11:29N 33°55' E 135°02'242 9.6
2018-Jun-16 10:23N 35°07' E 139°43'511.6
2018-Jun-16 10:00N 35°11' E 139°45'510.1
2018-Jun-16 09:30N 35°16' E 139°45'510.4
2018-Jun-16 09:01N 35°21' E 139°42'510.5
2018-Jun-16 08:31N 35°26' E 139°43'4 6.7
2018-Jun-16 07:58N 35°30' E 139°43'0 0.0
2018-Jun-16 07:28N 35°30' E 139°43'0 0.0
2018-Jun-16 06:58N 35°30' E 139°43'0 0.0
2018-Jun-16 06:28N 35°30' E 139°43'0 0.0
2018-Jun-16 05:58N 35°30' E 139°43'0 0.0
2018-Jun-16 05:28N 35°30' E 139°43'0 0.0
2018-Jun-16 04:58N 35°30' E 139°43'0 0.0
2018-Jun-16 04:28N 35°30' E 139°43'0 0.0
2018-Jun-16 04:00N 35°30' E 139°43'4 8.3
2018-Jun-16 03:30N 35°30' E 139°48'2 3.1
2018-Jun-16 02:55N 35°31' E 139°50'0 0.0
2018-Jun-16 02:19N 35°31' E 139°50'0 0.0
2018-Jun-16 01:58N 35°31' E 139°50'4 8.9
2018-Jun-16 01:30N 35°34' E 139°48'1 0.2
2018-Jun-15 20:43N 35°35' E 139°46'0 1.7
2018-Jun-15 20:30N 35°35' E 139°47'5 8.4
2018-Jun-15 19:55N 35°31' E 139°50'0 0.1
2018-Jun-15 19:26N 35°31' E 139°50'0 0.0
2018-Jun-15 18:59N 35°31' E 139°50'0 0.1
2018-Jun-15 18:29N 35°31' E 139°50'0 0.0
2018-Jun-15 17:59N 35°31' E 139°50'0 0.0
2018-Jun-15 17:26N 35°31' E 139°50'0 0.1
2018-Jun-15 16:59N 35°31' E 139°50'0 0.0
2018-Jun-15 16:29N 35°31' E 139°50'0 0.0
2018-Jun-15 15:59N 35°31' E 139°50'0 0.0
2018-Jun-15 15:23N 35°31' E 139°50'0 0.1
2018-Jun-15 14:59N 35°31' E 139°50'0 0.1
2018-Jun-15 14:20N 35°31' E 139°50'0 0.0
2018-Jun-15 13:59N 35°31' E 139°50'0 0.0
2018-Jun-15 13:26N 35°31' E 139°50'0 0.0
2018-Jun-15 12:59N 35°31' E 139°50'0 0.0
2018-Jun-15 12:29N 35°31' E 139°50'0 0.0
2018-Jun-15 11:59N 35°31' E 139°50'0 0.1
2018-Jun-15 11:05N 35°31' E 139°50'0 0.3
2018-Jun-15 10:56N 35°31' E 139°50'0 0.1
2018-Jun-15 10:26N 35°31' E 139°50'0 0.0
2018-Jun-15 09:56N 35°31' E 139°50'0 0.0
2018-Jun-15 09:29N 35°31' E 139°50'0 0.0
2018-Jun-15 08:59N 35°31' E 139°50'0 0.0
2018-Jun-15 08:14N 35°31' E 139°50'0 0.0
2018-Jun-15 07:50N 35°31' E 139°50'0 0.0
2018-Jun-15 07:29N 35°31' E 139°50'0 0.0
2018-Jun-15 06:59N 35°31' E 139°50'0 0.0
2018-Jun-15 06:23N 35°31' E 139°50'0 0.0
2018-Jun-15 05:50N 35°31' E 139°50'0 0.1
2018-Jun-15 05:14N 35°31' E 139°50'0 0.2
2018-Jun-15 04:56N 35°31' E 139°50'0 0.1
2018-Jun-15 04:26N 35°31' E 139°50'0 0.0
2018-Jun-15 03:59N 35°31' E 139°50'0 0.0
2018-Jun-15 03:29N 35°31' E 139°50'2 5.0
2018-Jun-15 03:00N 35°29' E 139°49'5 9.9
2018-Jun-15 02:30N 35°24' E 139°46'5 9.7
2018-Jun-15 02:00N 35°20' E 139°44'5 9.4
2018-Jun-15 01:28N 35°15' E 139°47'4 9.0
2018-Jun-15 01:00N 35°11' E 139°46'610.0
2018-Jun-15 00:25N 35°06' E 139°43'257 5.7
2018-Jun-13 02:59N 33°50' E 134°45'912.8
2018-Jun-13 02:16N 33°58' E 134°51'313.2
2018-Jun-13 02:00N 34°01' E 134°53'713.1
2018-Jun-13 01:30N 34°06' E 134°56'612.8
2018-Jun-13 01:00N 34°12' E 135°00'713.1
2018-Jun-13 00:30N 34°18' E 135°04'612.2
2018-Jun-13 00:00N 34°23' E 135°08'612.6
2018-Jun-12 23:30N 34°28' E 135°13'611.5
2018-Jun-12 23:00N 34°29' E 135°20'1 2.2
2018-Jun-12 22:25N 34°28' E 135°21'0 0.0
2018-Jun-12 21:55N 34°28' E 135°21'0 0.0
2018-Jun-12 21:25N 34°28' E 135°21'0 0.0
2018-Jun-12 20:49N 34°28' E 135°21'0 0.0
2018-Jun-12 20:25N 34°28' E 135°21'0 0.0
2018-Jun-12 19:55N 34°28' E 135°21'0 0.0
2018-Jun-12 19:25N 34°28' E 135°21'0 0.0
2018-Jun-12 18:49N 34°28' E 135°21'0 0.0
2018-Jun-12 18:25N 34°28' E 135°21'0 0.0
2018-Jun-12 17:01N 34°28' E 135°21'0 0.0
2018-Jun-12 16:49N 34°28' E 135°21'1 2.4
2018-Jun-12 16:31N 34°28' E 135°21'5 9.9
2018-Jun-12 15:58N 34°28' E 135°14'510.4
2018-Jun-12 15:30N 34°25' E 135°10'510.0
2018-Jun-12 15:00N 34°21' E 135°06'5 9.1
2018-Jun-12 14:30N 34°17' E 135°04'5 9.3
2018-Jun-12 14:01N 34°13' E 135°03'710.6
2018-Jun-12 13:23N 34°06' E 135°03'410.8
2018-Jun-12 12:58N 34°02' E 135°03'510.9
2018-Jun-12 12:30N 33°56' E 135°03'5 9.7
2018-Jun-12 12:00N 33°52' E 135°04'240 9.1
2018-Jun-11 09:42N 35°06' E 139°41'211.8
2018-Jun-11 09:29N 35°08' E 139°43'612.3
2018-Jun-11 09:00N 35°13' E 139°46'612.2
2018-Jun-11 08:31N 35°19' E 139°43'611.3
2018-Jun-11 08:00N 35°24' E 139°42'5 9.9
2018-Jun-11 07:30N 35°29' E 139°43'1 1.0
2018-Jun-11 06:59N 35°30' E 139°43'0 0.0
2018-Jun-11 06:29N 35°30' E 139°43'0 0.0
2018-Jun-11 05:59N 35°30' E 139°43'0 0.0
2018-Jun-11 05:29N 35°30' E 139°43'0 0.0
2018-Jun-11 04:59N 35°30' E 139°43'0 0.0
2018-Jun-11 04:29N 35°30' E 139°43'0 0.0
2018-Jun-11 03:59N 35°30' E 139°43'0 0.0
2018-Jun-11 03:29N 35°30' E 139°43'0 0.0
2018-Jun-11 02:59N 35°30' E 139°43'0 0.0
2018-Jun-11 02:30N 35°30' E 139°43'4 7.5
2018-Jun-11 02:00N 35°30' E 139°48'4 8.5
2018-Jun-11 01:30N 35°34' E 139°47'1 0.0
2018-Jun-10 01:28N 35°35' E 139°47'4 7.8
2018-Jun-10 01:00N 35°32' E 139°50'5 9.7
2018-Jun-10 00:30N 35°28' E 139°48'510.0
2018-Jun-10 00:01N 35°23' E 139°46'5 9.8
2018-Jun-09 23:30N 35°18' E 139°44'510.0
2018-Jun-09 23:00N 35°14' E 139°47'  

Dump ship's entire track history